Time;durP1;ratioP1;P1;durP2;ratioP2;P2;SDS_P1;SDS_P2;PMS_P1;PMS_P2;Temp;Humidity;BMP_temperature;BMP_pressure;BME280_temperature;BME280_humidity;BME280_pressure;Samples;Min_cycle;Max_cycle;Signal;HPM_P1;HPM_P2
2023/01/13 00:02:06;;;;;;;1999.90;999.90;;;;;;;7.90;100.00;95181.81;5066959;28;20200;-72
2023/01/13 00:04:31;;;;;;;1999.90;999.90;;;;;;;7.96;100.00;95184.91;5066783;28;20171;-69
2023/01/13 00:06:57;;;;;;;1999.90;999.90;;;;;;;8.01;100.00;95188.00;5066736;28;20192;-70
2023/01/13 00:09:22;;;;;;;1999.90;999.90;;;;;;;8.04;100.00;95192.66;5066858;28;20197;-70
2023/01/13 00:11:47;;;;;;;1999.90;999.90;;;;;;;8.06;100.00;95190.34;5067094;28;20165;-70
2023/01/13 00:14:13;;;;;;;1999.90;999.90;;;;;;;8.03;100.00;95185.69;5070507;28;20158;-71
2023/01/13 00:16:38;;;;;;;1999.90;999.90;;;;;;;8.03;100.00;95180.25;5069962;28;20209;-70
2023/01/13 00:19:03;;;;;;;1999.90;999.90;;;;;;;8.05;100.00;95167.03;5070253;28;20194;-69
2023/01/13 00:21:29;;;;;;;1999.90;999.90;;;;;;;8.09;100.00;95158.88;5070596;28;20165;-69
2023/01/13 00:23:54;;;;;;;1999.90;999.90;;;;;;;8.14;100.00;95164.69;5070413;28;20168;-69
2023/01/13 00:26:25;;;;;;;1999.90;999.90;;;;;;;8.14;100.00;95163.91;5069858;28;20183;-70
2023/01/13 00:28:58;;;;;;;1999.90;999.90;;;;;;;8.14;100.00;95170.13;5070036;28;20199;-69
2023/01/13 00:31:25;;;;;;;1999.90;999.90;;;;;;;8.21;100.00;95156.53;5070247;28;20226;-69
2023/01/13 00:33:50;;;;;;;1999.90;999.90;;;;;;;8.22;100.00;95155.38;5069855;28;20173;-69
2023/01/13 00:36:17;;;;;;;1999.90;999.90;;;;;;;8.24;100.00;95142.16;5069492;28;20169;-69
2023/01/13 00:38:43;;;;;;;1999.90;999.90;;;;;;;8.27;100.00;95135.91;5069372;28;20166;-69
2023/01/13 00:41:14;;;;;;;1999.90;999.90;;;;;;;8.34;100.00;95140.56;5069478;28;20196;-69
2023/01/13 00:43:43;;;;;;;1999.90;999.90;;;;;;;8.32;100.00;95149.13;5069879;28;20162;-69
2023/01/13 00:46:11;;;;;;;1999.90;999.90;;;;;;;8.28;100.00;95142.13;5069544;28;20165;-70
2023/01/13 00:48:36;;;;;;;1999.90;999.90;;;;;;;8.30;100.00;95147.97;5065477;28;20229;-69
2023/01/13 00:51:08;;;;;;;1999.90;999.90;;;;;;;8.31;100.00;95147.53;5066413;28;20208;-69
2023/01/13 00:53:40;;;;;;;1999.90;999.90;;;;;;;8.30;100.00;95151.44;5065853;28;20219;-69
2023/01/13 00:56:13;;;;;;;1999.90;999.90;;;;;;;8.26;100.00;95149.91;5065924;28;20177;-70
2023/01/13 00:58:39;;;;;;;1999.90;999.90;;;;;;;8.30;100.00;95151.44;5066324;28;20172;-70
2023/01/13 01:01:10;;;;;;;1999.90;999.90;;;;;;;8.23;100.00;95143.31;5065800;28;20169;-70
2023/01/13 01:03:36;;;;;;;1999.90;999.90;;;;;;;8.27;100.00;95146.78;5066032;28;20177;-71
2023/01/13 01:06:23;;;;;;;1999.90;999.90;;;;;;;8.26;100.00;95152.63;5065753;28;20169;-71
2023/01/13 01:08:49;;;;;;;1999.90;999.90;;;;;;;8.27;100.00;95141.34;5066183;28;20204;-70
2023/01/13 01:11:21;;;;;;;1999.90;999.90;;;;;;;8.28;100.00;95140.19;5065543;28;20240;-70
2023/01/13 01:13:46;;;;;;;1999.90;999.90;;;;;;;8.35;100.00;95145.63;5066121;28;20203;-70
2023/01/13 01:16:16;;;;;;;1999.90;999.90;;;;;;;8.33;100.00;95139.78;5065925;28;20189;-71
2023/01/13 01:18:44;;;;;;;1999.90;999.90;;;;;;;8.45;100.00;95141.31;5065832;28;20170;-70
2023/01/13 01:21:10;;;;;;;1999.90;999.90;;;;;;;8.46;100.00;95143.63;5065334;28;20214;-71
2023/01/13 01:23:36;;;;;;;1999.90;999.90;;;;;;;8.54;100.00;95134.25;5065324;28;20170;-70
2023/01/13 01:26:07;;;;;;;1999.90;999.90;;;;;;;8.57;100.00;95138.91;5066000;28;20168;-70
2023/01/13 01:28:34;;;;;;;1999.90;999.90;;;;;;;8.65;100.00;95134.97;5065487;28;20200;-69
2023/01/13 01:31:00;;;;;;;1999.90;999.90;;;;;;;8.73;100.00;95125.59;5065317;28;20166;-69
2023/01/13 01:33:26;;;;;;;1999.90;999.90;;;;;;;8.78;100.00;95127.88;5065236;28;20165;-69
2023/01/13 01:35:53;;;;;;;1999.90;999.90;;;;;;;8.77;100.00;95137.22;5065585;28;20166;-69
2023/01/13 01:38:20;;;;;;;1999.90;999.90;;;;;;;8.75;100.00;95138.81;5064938;28;20170;-68
2023/01/13 01:40:45;;;;;;;1999.90;999.90;;;;;;;8.82;100.00;95134.09;5065557;28;20162;-69
2023/01/13 01:46:00;;;;;;;1999.90;999.90;;;;;;;8.75;100.00;95128.69;5066114;28;20203;-69
2023/01/13 01:48:32;;;;;;;1999.90;999.90;;;;;;;8.66;100.00;95124.84;5064715;28;20230;-71
2023/01/13 01:50:57;;;;;;;1999.90;999.90;;;;;;;8.67;100.00;95127.16;5065105;28;20158;-71
2023/01/13 01:53:25;;;;;;;1999.90;999.90;;;;;;;8.67;100.00;95137.31;5064820;28;20180;-69
2023/01/13 01:55:51;;;;;;;1999.90;999.90;;;;;;;8.64;100.00;95127.97;5064617;28;20158;-69
2023/01/13 01:58:27;;;;;;;1999.90;999.90;;;;;;;8.66;100.00;95124.84;5064713;28;20220;-68
2023/01/13 02:00:53;;;;;;;1999.90;999.90;;;;;;;8.68;100.00;95123.31;5065124;28;20236;-69
2023/01/13 02:03:19;;;;;;;1999.90;999.90;;;;;;;8.68;100.00;95117.84;5064548;28;20166;-70
2023/01/13 02:05:44;;;;;;;1999.90;999.90;;;;;;;8.67;100.00;95107.38;5064972;28;20530;-70
2023/01/13 02:08:12;;;;;;;1999.90;999.90;;;;;;;8.66;100.00;95117.47;5064933;28;20197;-69
2023/01/13 02:10:40;;;;;;;1999.90;999.90;;;;;;;8.69;100.00;95113.97;5064877;28;20170;-69
2023/01/13 02:13:09;;;;;;;1999.90;999.90;;;;;;;8.71;100.00;95108.13;5064449;28;20158;-69
2023/01/13 02:15:56;;;;;;;1999.90;999.90;;;;;;;8.73;100.00;95089.41;5064159;28;20161;-70
2023/01/13 02:18:27;;;;;;;1999.90;999.90;;;;;;;8.72;100.00;95088.66;5064835;28;20158;-69
2023/01/13 02:21:16;;;;;;;1999.90;999.90;;;;;;;8.69;100.00;95092.19;5064312;28;20181;-69
2023/01/13 02:27:06;;;;;;;1999.90;999.90;;;;;;;8.71;100.00;95070.75;5065301;28;20152;-69
2023/01/13 02:33:12;;;;;;;1999.90;999.90;;;;;;;8.77;100.00;95074.63;5065151;28;20172;-69
2023/01/13 02:35:52;;;;;;;1999.90;999.90;;;;;;;8.77;100.00;95065.66;5064046;28;20207;-68
2023/01/13 02:38:24;;;;;;;1999.90;999.90;;;;;;;8.77;100.00;95066.47;5064586;28;20161;-69
2023/01/13 02:44:05;;;;;;;1999.90;999.90;;;;;;;8.75;100.00;95059.88;5064153;28;20162;-69
2023/01/13 02:44:06;;;;;;;1999.90;999.90;;;;;;;8.70;100.00;95061.06;5064857;28;20158;-69
2023/01/13 02:46:50;;;;;;;1999.90;999.90;;;;;;;8.73;100.00;95060.25;5063761;28;20161;-69
2023/01/13 02:49:23;;;;;;;1999.90;999.90;;;;;;;8.73;100.00;95054.81;5064308;28;20205;-71
2023/01/13 02:51:53;;;;;;;1999.90;999.90;;;;;;;8.72;100.00;95069.63;5064057;28;20158;-70
2023/01/13 02:54:25;;;;;;;1999.90;999.90;;;;;;;8.72;100.00;95069.63;5063665;28;20540;-70
2023/01/13 02:56:54;;;;;;;1999.90;999.90;;;;;;;8.70;100.00;95061.06;5064393;28;20204;-69
2023/01/13 02:59:21;;;;;;;1999.90;999.90;;;;;;;8.70;100.00;95066.50;5063993;28;20181;-69
2023/01/13 03:01:48;;;;;;;1999.90;999.90;;;;;;;8.62;100.00;95065.00;5064229;28;20166;-69
2023/01/13 03:04:48;;;;;;;1999.90;999.90;;;;;;;8.52;100.00;95048.75;5063631;28;20185;-70
2023/01/13 03:07:35;;;;;;;1999.90;999.90;;;;;;;8.43;100.00;95049.19;5063652;28;20172;-70
2023/01/13 03:10:04;;;;;;;1999.90;999.90;;;;;;;8.37;100.00;95042.59;5064125;28;20220;-70
2023/01/13 03:12:43;;;;;;;1999.90;999.90;;;;;;;8.28;100.00;95049.66;5064048;28;20241;-70
2023/01/13 03:15:19;;;;;;;1999.90;999.90;;;;;;;8.21;100.00;95041.50;5063577;28;20157;-69
2023/01/13 03:17:59;;;;;;;1999.90;999.90;;;;;;;8.19;100.00;95041.88;5064076;28;20164;-69
2023/01/13 03:20:31;;;;;;;1999.90;999.90;;;;;;;8.14;100.00;95042.31;5063809;28;20181;-69
2023/01/13 03:23:32;;;;;;;1999.90;999.90;;;;;;;8.14;100.00;95034.16;5064061;28;20163;-69
2023/01/13 03:26:16;;;;;;;1999.90;999.90;;;;;;;8.13;100.00;95034.53;4981034;28;20188;-69
2023/01/13 03:28:47;;;;;;;1999.90;999.90;;;;;;;8.09;100.00;95026.38;5064200;28;20182;-68
2023/01/13 03:31:18;;;;;;;1999.90;999.90;;;;;;;8.02;100.00;95021.00;5063710;28;20526;-68
2023/01/13 03:34:00;;;;;;;1999.90;999.90;;;;;;;8.03;100.00;95030.72;5063854;28;20154;-68
2023/01/13 03:36:28;;;;;;;1999.90;999.90;;;;;;;8.04;100.00;95031.47;5063925;28;20237;-68
2023/01/13 03:38:58;;;;;;;1999.90;999.90;;;;;;;8.04;100.00;95031.47;5063345;28;20162;-69
2023/01/13 03:41:37;;;;;;;1999.90;999.90;;;;;;;8.02;100.00;95037.31;5063773;28;20443;-67
2023/01/13 03:44:21;;;;;;;1999.90;999.90;;;;;;;8.01;100.00;95030.31;5063245;28;20157;-68
2023/01/13 03:47:17;;;;;;;1999.90;999.90;;;;;;;8.02;100.00;95031.09;5066614;28;20171;-69
2023/01/13 03:49:52;;;;;;;1999.90;999.90;;;;;;;8.04;100.00;95040.41;5059284;28;20203;-70
2023/01/13 03:52:42;;;;;;;1999.90;999.90;;;;;;;8.00;100.00;95034.22;5070858;28;20178;-70
2023/01/13 03:55:17;;;;;;;1999.90;999.90;;;;;;;8.00;100.00;95034.22;5070565;28;20199;-71
2023/01/13 03:57:52;;;;;;;1999.90;999.90;;;;;;;7.98;100.00;95031.09;5070276;28;20255;-70
2023/01/13 04:00:25;;;;;;;1999.90;999.90;;;;;;;8.02;100.00;95026.44;5070019;28;20168;-72
2023/01/13 04:03:10;;;;;;;1999.90;999.90;;;;;;;8.02;100.00;95034.59;5070741;28;20182;-70
2023/01/13 04:05:42;;;;;;;1999.90;999.90;;;;;;;8.03;100.00;95021.78;5070435;28;20168;-72
2023/01/13 04:08:18;;;;;;;1999.90;999.90;;;;;;;8.07;100.00;95020.59;5070326;28;20200;-71
2023/01/13 04:10:52;;;;;;;1999.90;999.90;;;;;;;8.09;100.00;95020.94;5070382;28;20161;-71
2023/01/13 04:13:22;;;;;;;1999.90;999.90;;;;;;;8.13;100.00;95021.72;5070294;28;20476;-69
2023/01/13 04:15:48;;;;;;;1999.90;999.90;;;;;;;8.24;100.00;95006.16;5070185;28;20251;-69
2023/01/13 04:18:26;;;;;;;1999.90;999.90;;;;;;;8.39;100.00;95001.41;5070271;28;20164;-71
2023/01/13 04:20:53;;;;;;;1999.90;999.90;;;;;;;8.59;100.00;95007.84;5069925;28;20189;-70
2023/01/13 04:23:20;;;;;;;1999.90;999.90;;;;;;;8.72;100.00;95012.44;5070279;28;20165;-70
2023/01/13 04:25:46;;;;;;;1999.90;999.90;;;;;;;8.93;100.00;95003.34;5069793;28;20172;-70
2023/01/13 04:28:12;;;;;;;1999.90;999.90;;;;;;;9.00;100.00;95011.44;5069548;28;20485;-73
2023/01/13 04:30:38;;;;;;;1999.90;999.90;;;;;;;9.02;100.00;95007.16;5069687;28;20165;-70
2023/01/13 04:33:04;;;;;;;1999.90;999.90;;;;;;;9.04;100.00;95004.03;5069592;28;20157;-70
2023/01/13 04:35:31;;;;;;;1999.90;999.90;;;;;;;9.08;100.00;94993.88;5069996;28;20169;-70
2023/01/13 04:37:59;;;;;;;1999.90;999.90;;;;;;;9.14;100.00;95001.19;5069668;28;20240;-71
2023/01/13 04:40:25;;;;;;;1999.90;999.90;;;;;;;9.23;100.00;95001.50;5069590;28;20203;-69
2023/01/13 04:42:50;;;;;;;1999.90;999.90;;;;;;;9.29;100.00;94991.69;5069117;28;20170;-72
2023/01/13 04:45:15;;;;;;;1999.90;999.90;;;;;;;9.30;100.00;94995.22;5069466;28;20184;-72
2023/01/13 04:47:41;;;;;;;1999.90;999.90;;;;;;;9.36;100.00;94999.81;5069103;28;20216;-71
2023/01/13 04:50:07;;;;;;;1999.90;999.90;;;;;;;9.36;100.00;94988.91;5069307;28;20169;-70
2023/01/13 04:52:33;;;;;;;1999.90;999.90;;;;;;;9.43;100.00;94983.38;5069092;28;20196;-70
2023/01/13 04:54:58;;;;;;;1999.90;999.90;;;;;;;9.45;100.00;94978.31;5069700;28;20162;-72
2023/01/13 04:57:24;;;;;;;1999.90;999.90;;;;;;;9.51;100.00;94973.19;5069104;28;20157;-72
2023/01/13 04:59:50;;;;;;;1999.90;999.90;;;;;;;9.54;100.00;94975.09;5069189;28;20181;-70
2023/01/13 05:02:18;;;;;;;1999.90;999.90;;;;;;;9.64;100.00;94983.16;5068966;28;20199;-70
2023/01/13 05:04:47;;;;;;;1999.90;999.90;;;;;;;9.67;100.00;94976.91;5068691;28;20192;-70
2023/01/13 05:07:14;;;;;;;1999.90;999.90;;;;;;;9.69;100.00;94984.69;5069426;28;20193;-71
2023/01/13 05:09:40;;;;;;;1999.90;999.90;;;;;;;9.74;100.00;94982.28;5069015;28;20193;-69
2023/01/13 05:17:34;;;;;;;1999.90;999.90;;;;;;;9.84;100.00;94978.63;5086479;28;20157;-67
2023/01/13 05:20:00;;;;;;;1999.90;999.90;;;;;;;9.90;100.00;94977.00;5068610;28;20347;-68
2023/01/13 05:25:23;;;;;;;1999.90;999.90;;;;;;;9.95;100.00;94987.44;5086444;28;20156;-69
2023/01/13 05:27:54;;;;;;;1999.90;999.90;;;;;;;9.96;100.00;94983.56;5069043;28;20169;-69
2023/01/13 05:30:44;;;;;;;1999.90;999.90;;;;;;;10.03;100.00;94980.72;5068696;28;20164;-71
2023/01/13 05:33:12;;;;;;;1999.90;999.90;;;;;;;10.05;100.00;94978.41;5068892;28;20157;-71
2023/01/13 05:35:39;;;;;;;1999.90;999.90;;;;;;;10.04;100.00;94974.09;5068290;28;20170;-69
2023/01/13 05:38:04;;;;;;;1999.90;999.90;;;;;;;10.05;100.00;94974.84;5068323;28;20169;-72
2023/01/13 05:43:20;;;;;;;1999.90;999.90;;;;;;;10.12;100.00;94965.84;5086006;28;20469;-70
2023/01/13 05:45:48;;;;;;;1999.90;999.90;;;;;;;10.16;100.00;94970.06;5068108;28;20169;-70
2023/01/13 05:48:14;;;;;;;1999.90;999.90;;;;;;;10.17;100.00;94976.28;5068214;28;20221;-76
2023/01/13 05:50:39;;;;;;;1999.90;999.90;;;;;;;10.13;100.00;94967.38;5068128;28;20161;-71
2023/01/13 05:53:05;;;;;;;1999.90;999.90;;;;;;;10.06;100.00;94974.47;5068527;28;20160;-70
2023/01/13 05:55:30;;;;;;;1999.90;999.90;;;;;;;10.06;100.00;94974.47;5068433;28;20158;-69
2023/01/13 05:57:56;;;;;;;1999.90;999.90;;;;;;;10.05;100.00;94970.22;5067896;28;20186;-70
2023/01/13 06:00:21;;;;;;;1999.90;999.90;;;;;;;10.09;100.00;94965.47;5068383;28;20157;-69
2023/01/13 06:02:46;;;;;;;1999.90;999.90;;;;;;;10.11;100.00;94967.81;5067936;28;20161;-69
2023/01/13 06:05:12;;;;;;;1999.90;999.90;;;;;;;10.19;100.00;94963.78;5067754;28;20153;-67
2023/01/13 06:07:37;;;;;;;1999.90;999.90;;;;;;;10.18;100.00;94972.38;5068250;28;20172;-67
2023/01/13 06:10:03;;;;;;;1999.90;999.90;;;;;;;10.18;100.00;94964.19;5066782;28;20223;-72
2023/01/13 06:12:28;;;;;;;1999.90;999.90;;;;;;;10.19;100.00;94960.31;5067558;28;20165;-71
2023/01/13 06:14:54;;;;;;;1999.90;999.90;;;;;;;10.24;100.00;94970.75;5067992;28;20161;-67
2023/01/13 06:17:19;;;;;;;1999.90;999.90;;;;;;;10.22;100.00;94973.09;5067462;28;20164;-71
2023/01/13 06:19:45;;;;;;;1999.90;999.90;;;;;;;10.13;100.00;94966.19;5067563;28;20407;-69
2023/01/13 06:22:15;;;;;;;1999.90;999.90;;;;;;;10.14;100.00;94967.75;5067496;28;20158;-72
2023/01/13 06:24:40;;;;;;;1999.90;999.90;;;;;;;10.14;100.00;94967.75;5067951;28;20229;-70
2023/01/13 06:27:08;;;;;;;1999.90;999.90;;;;;;;10.13;100.00;94960.75;5067271;28;20190;-70
2023/01/13 06:29:33;;;;;;;1999.90;999.90;;;;;;;10.18;100.00;94966.91;5067439;28;20268;-71
2023/01/13 06:32:04;;;;;;;1999.90;999.90;;;;;;;10.19;100.00;94974.69;5067495;28;20219;-69
2023/01/13 06:34:31;;;;;;;1999.90;999.90;;;;;;;10.20;100.00;94970.78;5067789;28;20184;-69
2023/01/13 06:36:56;;;;;;;1999.90;999.90;;;;;;;10.19;100.00;94973.94;5067182;28;20455;-68
2023/01/13 06:39:26;;;;;;;1999.90;999.90;;;;;;;10.20;100.00;94972.75;5067711;28;20191;-67
2023/01/13 06:44:37;;;;;;;1999.90;999.90;;;;;;;10.21;100.00;94979.75;5084854;28;20166;-70
2023/01/13 06:47:03;;;;;;;1999.90;999.90;;;;;;;10.19;100.00;94984.88;5067338;28;20218;-69
2023/01/13 06:49:29;;;;;;;1999.90;999.90;;;;;;;10.17;100.00;94987.22;5067639;28;20217;-69
2023/01/13 06:51:54;;;;;;;1999.90;999.90;;;;;;;10.16;100.00;94972.03;5067428;28;20339;-66
2023/01/13 06:54:19;;;;;;;1999.90;999.90;;;;;;;10.21;100.00;94979.75;5067041;28;20327;-70
2023/01/13 06:56:45;;;;;;;1999.90;999.90;;;;;;;10.20;100.00;94970.03;5067078;28;20162;-73
2023/01/13 06:59:10;;;;;;;1999.90;999.90;;;;;;;10.23;100.00;94982.84;5067296;28;20177;-71
2023/01/13 07:01:35;;;;;;;1999.90;999.90;;;;;;;10.20;100.00;94975.47;5066935;28;20176;-74
2023/01/13 07:04:01;;;;;;;1999.90;999.90;;;;;;;10.18;100.00;94972.38;5067402;28;20161;-70
2023/01/13 07:06:27;;;;;;;1999.90;999.90;;;;;;;10.20;100.00;94980.94;5067482;28;20241;-73
2023/01/13 07:08:53;;;;;;;1999.90;999.90;;;;;;;10.18;100.00;94988.75;5067276;28;20226;-69
2023/01/13 07:11:18;;;;;;;1999.90;999.90;;;;;;;10.14;100.00;94988.81;5067221;28;20157;-73
2023/01/13 07:16:27;;;;;;;1999.90;999.90;;;;;;;10.16;100.00;94988.41;5084572;28;20157;-69
2023/01/13 07:18:53;;;;;;;1999.90;999.90;;;;;;;10.12;100.00;94979.50;5066586;28;20157;-72
2023/01/13 07:21:19;;;;;;;1999.90;999.90;;;;;;;10.13;100.00;94998.19;5068385;28;20237;-72
2023/01/13 07:23:46;;;;;;;1999.90;999.90;;;;;;;10.12;100.00;94998.59;5070737;28;20157;-73
2023/01/13 07:26:12;;;;;;;1999.90;999.90;;;;;;;10.13;100.00;94997.41;5070715;28;20157;-73
2023/01/13 07:28:38;;;;;;;1999.90;999.90;;;;;;;10.12;100.00;94988.44;5070580;28;20194;-72
2023/01/13 07:31:04;;;;;;;1999.90;999.90;;;;;;;10.13;100.00;94997.41;5070840;28;20169;-73
2023/01/13 07:33:33;;;;;;;1999.90;999.90;;;;;;;10.12;100.00;94995.88;5070542;28;20244;-73
2023/01/13 07:36:03;;;;;;;1999.90;999.90;;;;;;;10.09;100.00;95000.94;5071142;28;20241;-73
2023/01/13 07:38:30;;;;;;;1999.90;999.90;;;;;;;10.09;100.00;95006.41;5070644;28;20165;-73
2023/01/13 07:40:55;;;;;;;1999.90;999.90;;;;;;;10.03;100.00;94999.81;5070588;28;20161;-73
2023/01/13 07:43:32;;;;;;;1999.90;999.90;;;;;;;10.10;100.00;95005.22;5070464;28;20232;-73
2023/01/13 07:45:59;;;;;;;1999.90;999.90;;;;;;;10.14;100.00;95005.94;5070538;28;20157;-73
2023/01/13 07:48:26;;;;;;;1999.90;999.90;;;;;;;10.14;100.00;95000.47;5070078;28;20223;-73
2023/01/13 07:50:52;;;;;;;1999.90;999.90;;;;;;;10.20;100.00;95002.78;5070332;28;20189;-73
2023/01/13 07:53:18;;;;;;;1999.90;999.90;;;;;;;10.21;100.00;95004.31;5070144;28;20386;-72
2023/01/13 07:55:43;;;;;;;1999.90;999.90;;;;;;;10.27;100.00;95013.59;5070721;28;20244;-72
2023/01/13 07:58:09;;;;;;;1999.90;999.90;;;;;;;10.31;100.00;95014.31;5069844;28;20161;-71
2023/01/13 08:00:36;;;;;;;1999.90;999.90;;;;;;;10.31;100.00;95008.84;5070713;28;20157;-71
2023/01/13 08:03:01;;;;;;;1999.90;999.90;;;;;;;10.36;100.00;95005.66;5070110;28;20168;-71
2023/01/13 08:05:27;;;;;;;1999.90;999.90;;;;;;;10.37;100.00;95004.50;5070128;28;20162;-72
2023/01/13 08:07:52;;;;;;;1999.90;999.90;;;;;;;10.41;100.00;94997.03;5069588;28;20167;-71
2023/01/13 08:10:18;;;;;;;1999.90;999.90;;;;;;;10.41;100.00;94997.03;5069646;28;20174;-71
2023/01/13 08:15:28;;;;;;;1999.90;999.90;;;;;;;10.44;100.00;95001.63;5087485;28;20211;-72
2023/01/13 08:17:54;;;;;;;1999.90;999.90;;;;;;;10.53;100.00;94996.47;5069974;28;20173;-72
2023/01/13 08:20:19;;;;;;;1999.90;999.90;;;;;;;10.51;100.00;94996.88;5069811;28;20215;-73
2023/01/13 08:22:45;;;;;;;1999.90;999.90;;;;;;;10.51;100.00;95002.31;5070310;28;20176;-71
2023/01/13 08:25:10;;;;;;;1999.90;999.90;;;;;;;10.54;100.00;94998.00;5070226;28;20198;-74
2023/01/13 08:27:36;;;;;;;1999.90;999.90;;;;;;;10.52;100.00;94995.69;5070177;28;20203;-75
2023/01/13 08:30:01;;;;;;;1999.90;999.90;;;;;;;10.52;100.00;94989.47;5070149;28;20206;-76
2023/01/13 08:32:26;;;;;;;1999.90;999.90;;;;;;;10.50;100.00;95005.47;5068568;28;20177;-74
2023/01/13 08:34:52;;;;;;;1999.90;999.90;;;;;;;10.57;100.00;94999.91;5069537;28;20173;-73
2023/01/13 08:37:17;;;;;;;1999.90;999.90;;;;;;;10.60;100.00;94993.63;5069465;28;20219;-74
2023/01/13 08:39:42;;;;;;;1999.90;999.90;;;;;;;10.61;100.00;95000.63;5069577;28;20241;-73
2023/01/13 08:42:08;;;;;;;1999.90;999.90;;;;;;;10.70;100.00;95003.63;5069072;28;20176;-73
2023/01/13 08:44:33;;;;;;;1999.90;999.90;;;;;;;10.73;100.00;95002.78;5069365;28;20177;-72
2023/01/13 08:46:58;;;;;;;1999.90;999.90;;;;;;;10.71;100.00;95005.16;5069017;28;20170;-76
2023/01/13 08:49:25;;;;;;;1999.90;999.90;;;;;;;10.79;100.00;95004.66;5069767;28;20258;-77
2023/01/13 08:51:51;;;;;;;1999.90;999.90;;;;;;;10.79;100.00;95001.13;5069192;28;20196;-74
2023/01/13 08:54:17;;;;;;;1999.90;999.90;;;;;;;10.82;100.00;95011.25;5069248;28;20188;-77
2023/01/13 08:56:43;;;;;;;1999.90;999.90;;;;;;;10.84;100.00;95006.91;5069185;28;20427;-77
2023/01/13 08:59:14;;;;;;;1999.90;999.90;;;;;;;10.84;100.00;95006.13;5069391;28;20233;-79
2023/01/13 09:01:40;;;;;;;1999.90;999.90;;;;;;;10.94;100.00;95011.44;5069391;28;20162;-78
2023/01/13 09:04:11;;;;;;;1999.90;999.90;;;;;;;11.00;100.00;95011.72;5068932;28;20173;-75
2023/01/13 09:06:36;;;;;;;1999.90;999.90;;;;;;;11.08;100.00;95013.94;5069376;28;20172;-75
2023/01/13 09:09:02;;;;;;;1999.90;999.90;;;;;;;11.19;100.00;95009.06;5069437;28;20260;-74
2023/01/13 09:14:24;;;;;;;1999.90;999.90;;;;;;;11.31;100.00;95016.66;5086629;28;20161;-76
2023/01/13 09:16:50;;;;;;;1999.90;999.90;;;;;;;11.38;100.00;95011.06;5068630;28;20175;-76
2023/01/13 09:19:15;;;;;;;1999.90;999.90;;;;;;;11.42;100.00;95013.75;5069463;28;20210;-74
2023/01/13 09:21:44;;;;;;;1999.90;999.90;;;;;;;11.48;100.00;95025.75;5068703;28;20397;-77
2023/01/13 09:24:09;;;;;;;1999.90;999.90;;;;;;;11.54;100.00;95024.09;5069129;28;20175;-77
2023/01/13 09:26:36;;;;;;;1999.90;999.90;;;;;;;11.60;100.00;95028.66;5068497;28;20198;-73
2023/01/13 09:29:01;;;;;;;1999.90;999.90;;;;;;;11.63;100.00;95032.53;5068832;28;20202;-75
2023/01/13 09:31:27;;;;;;;1999.90;999.90;;;;;;;11.59;100.00;95026.34;5068420;28;20185;-79
2023/01/13 09:36:36;;;;;;;1999.90;999.90;;;;;;;11.73;100.00;95026.09;5086021;28;20166;-75
2023/01/13 09:39:02;;;;;;;1999.90;999.90;;;;;;;11.82;100.00;95029.06;5068285;28;20172;-74
2023/01/13 09:44:58;;;;;;;1999.90;999.90;;;;;;;12.24;100.00;95017.28;5086006;28;20176;-71
2023/01/13 09:47:34;;;;;;;1999.90;999.90;;;;;;;12.35;100.00;95006.88;5036383;28;20225;-72
2023/01/13 09:50:12;;;;;;;1999.90;999.90;;;;;;;12.47;100.00;95008.94;5068241;28;20231;-72
2023/01/13 09:52:38;;;;;;;1999.90;999.90;;;;;;;12.57;100.00;95013.44;5068333;28;20180;-72
2023/01/13 09:55:10;;;;;;;1999.90;999.90;;;;;;;12.78;100.00;95012.94;5068533;28;20243;-70
2023/01/13 09:57:38;;;;;;;1999.90;999.90;;;;;;;13.26;100.00;95000.06;5068181;28;20175;-72
2023/01/13 10:00:23;;;;;;;1999.90;999.90;;;;;;;13.45;100.00;94992.94;5067936;28;20176;-68
2023/01/13 10:03:21;;;;;;;1999.90;999.90;;;;;;;13.55;100.00;95000.09;5068411;28;20238;-68
2023/01/13 10:05:55;;;;;;;1999.90;999.90;;;;;;;13.70;100.00;95006.78;5068378;28;20192;-68
2023/01/13 10:08:28;;;;;;;1999.90;999.90;;;;;;;13.51;100.00;95015.13;5068217;28;20189;-69
2023/01/13 10:10:57;;;;;;;1999.90;999.90;;;;;;;13.64;99.73;94996.72;5068185;28;20238;-67
2023/01/13 10:13:29;;;;;;;1999.90;999.90;;;;;;;13.90;99.00;95001.91;5067614;28;20207;-67
2023/01/13 10:16:10;;;;;;;1999.90;999.90;;;;;;;14.22;95.93;94987.31;5067444;28;20348;-67
2023/01/13 10:18:44;;;;;;;1999.90;999.90;;;;;;;14.12;96.90;94989.13;5067853;28;20161;-68
2023/01/13 10:21:21;;;;;;;1999.90;999.90;;;;;;;14.08;96.96;94977.47;5067744;28;20461;-70
2023/01/13 10:23:58;;;;;;;1999.90;999.90;;;;;;;14.79;92.78;94974.16;5067981;28;20188;-69
2023/01/13 10:26:36;;;;;;;1999.90;999.90;;;;;;;14.56;93.30;94971.75;5067895;28;20172;-73
2023/01/13 10:29:01;;;;;;;1999.90;999.90;;;;;;;14.69;91.94;94980.78;5067310;28;20264;-71
2023/01/13 10:31:27;;;;;;;1999.90;999.90;;;;;;;14.88;90.34;94974.28;5066995;28;20173;-73
2023/01/13 10:34:00;;;;;;;1999.90;999.90;;;;;;;14.60;91.35;94974.41;5067306;28;20371;-68
2023/01/13 10:36:26;;;;;;;1999.90;999.90;;;;;;;14.57;92.20;94976.03;5067757;28;20191;-70
2023/01/13 10:38:51;;;;;;;1999.90;999.90;;;;;;;14.65;92.40;94971.09;5067285;28;20165;-71
2023/01/13 10:41:22;;;;;;;1999.90;999.90;;;;;;;14.60;91.28;94969.66;5067773;28;20210;-70
2023/01/13 10:43:51;;;;;;;1999.90;999.90;;;;;;;14.64;93.07;94947.59;5068065;28;20336;-70
2023/01/13 10:46:18;;;;;;;1999.90;999.90;;;;;;;14.45;93.29;94949.31;5067151;28;20457;-69
2023/01/13 10:48:44;;;;;;;1999.90;999.90;;;;;;;14.26;95.57;94960.50;5067159;28;20516;-70
2023/01/13 10:51:36;;;;;;;1999.90;999.90;;;;;;;14.05;96.20;94950.88;5067150;28;20180;-70
2023/01/13 10:54:19;;;;;;;1999.90;999.90;;;;;;;13.99;97.63;94946.38;5067614;28;20165;-69
2023/01/13 10:56:45;;;;;;;1999.90;999.90;;;;;;;13.92;98.96;94950.09;5066897;28;20165;-68
2023/01/13 10:59:15;;;;;;;1999.90;999.90;;;;;;;13.96;98.63;94939.78;5066857;28;20207;-68
2023/01/13 11:01:50;;;;;;;1999.90;999.90;;;;;;;13.81;100.00;94933.16;5067408;28;20195;-71
2023/01/13 11:04:27;;;;;;;1999.90;999.90;;;;;;;13.60;100.00;94941.97;5066766;28;20183;-69
2023/01/13 11:06:52;;;;;;;1999.90;999.90;;;;;;;13.36;100.00;94937.91;5067587;28;20183;-70
2023/01/13 11:09:19;;;;;;;1999.90;999.90;;;;;;;13.09;100.00;94929.22;5067115;28;20205;-73
2023/01/13 11:11:46;;;;;;;1999.90;999.90;;;;;;;12.79;100.00;94933.03;5066930;28;20238;-73
2023/01/13 11:14:35;;;;;;;1999.90;999.90;;;;;;;12.62;100.00;94938.94;5066620;28;20169;-73
2023/01/13 11:17:30;;;;;;;1999.90;999.90;;;;;;;12.60;100.00;94966.78;5067534;28;20361;-70
2023/01/13 11:20:11;;;;;;;1999.90;999.90;;;;;;;12.69;100.00;94956.00;5055281;28;20211;-72
2023/01/13 11:22:54;;;;;;;1999.90;999.90;;;;;;;12.90;100.00;94963.69;5067291;28;20206;-71
2023/01/13 11:25:30;;;;;;;1999.90;999.90;;;;;;;12.77;100.00;94967.56;5066403;28;20172;-75
2023/01/13 11:28:02;;;;;;;1999.90;999.90;;;;;;;12.64;100.00;94958.47;5067378;28;20197;-70
2023/01/13 11:30:42;;;;;;;1999.90;999.90;;;;;;;12.77;100.00;94962.06;5066972;28;20488;-71
2023/01/13 11:33:14;;;;;;;1999.90;999.90;;;;;;;12.74;100.00;94951.97;5067028;28;20173;-70
2023/01/13 11:35:44;;;;;;;1999.90;999.90;;;;;;;12.77;100.00;94964.81;5067133;28;20207;-73
2023/01/13 11:38:44;;;;;;;1999.90;999.90;;;;;;;12.66;100.00;94956.06;5066606;28;20250;-72
2023/01/13 11:41:22;;;;;;;1999.90;999.90;;;;;;;12.45;100.00;94956.56;5063250;28;20184;-72